sensor_id;sensor_type;location;lat;lon;timestamp;P1;durP1;ratioP1;P2;durP2;ratioP2
151;SDS011;68;48.792;9.164;2023-04-07T00:00:41;17.58;;;11.60;;
151;SDS011;68;48.792;9.164;2023-04-07T00:03:09;15.05;;;11.50;;
151;SDS011;68;48.792;9.164;2023-04-07T00:05:36;18.60;;;11.95;;
151;SDS011;68;48.792;9.164;2023-04-07T00:08:03;16.15;;;12.55;;
151;SDS011;68;48.792;9.164;2023-04-07T00:10:30;17.05;;;11.90;;
151;SDS011;68;48.792;9.164;2023-04-07T00:12:57;20.60;;;12.80;;
151;SDS011;68;48.792;9.164;2023-04-07T00:15:24;16.75;;;12.15;;
151;SDS011;68;48.792;9.164;2023-04-07T00:17:50;19.70;;;13.10;;
151;SDS011;68;48.792;9.164;2023-04-07T00:20:19;24.42;;;12.93;;
151;SDS011;68;48.792;9.164;2023-04-07T00:22:46;16.88;;;11.88;;
151;SDS011;68;48.792;9.164;2023-04-07T00:25:13;21.63;;;13.07;;
151;SDS011;68;48.792;9.164;2023-04-07T00:27:40;17.02;;;12.20;;
151;SDS011;68;48.792;9.164;2023-04-07T00:30:07;19.67;;;13.05;;
151;SDS011;68;48.792;9.164;2023-04-07T00:32:34;17.10;;;12.68;;
151;SDS011;68;48.792;9.164;2023-04-07T00:35:01;19.05;;;12.63;;
151;SDS011;68;48.792;9.164;2023-04-07T00:37:29;18.27;;;12.90;;
151;SDS011;68;48.792;9.164;2023-04-07T00:39:56;18.63;;;13.02;;
151;SDS011;68;48.792;9.164;2023-04-07T00:42:23;20.90;;;13.80;;
151;SDS011;68;48.792;9.164;2023-04-07T00:44:50;20.48;;;13.13;;
151;SDS011;68;48.792;9.164;2023-04-07T00:47:17;17.50;;;12.65;;
151;SDS011;68;48.792;9.164;2023-04-07T00:49:44;17.48;;;12.15;;
151;SDS011;68;48.792;9.164;2023-04-07T00:52:10;17.13;;;11.90;;
151;SDS011;68;48.792;9.164;2023-04-07T00:54:39;18.13;;;12.27;;
151;SDS011;68;48.792;9.164;2023-04-07T00:57:07;21.98;;;12.73;;
151;SDS011;68;48.792;9.164;2023-04-07T00:59:34;18.13;;;11.98;;
151;SDS011;68;48.792;9.164;2023-04-07T01:02:02;16.70;;;12.27;;
151;SDS011;68;48.792;9.164;2023-04-07T01:04:34;17.45;;;12.38;;
151;SDS011;68;48.792;9.164;2023-04-07T01:07:10;19.70;;;12.73;;
151;SDS011;68;48.792;9.164;2023-04-07T01:09:47;17.00;;;12.68;;
151;SDS011;68;48.792;9.164;2023-04-07T01:12:22;19.30;;;13.38;;
151;SDS011;68;48.792;9.164;2023-04-07T01:14:59;20.15;;;13.95;;
151;SDS011;68;48.792;9.164;2023-04-07T01:17:33;18.80;;;12.88;;
151;SDS011;68;48.792;9.164;2023-04-07T01:20:02;17.58;;;12.43;;
151;SDS011;68;48.792;9.164;2023-04-07T01:22:32;17.02;;;12.82;;
151;SDS011;68;48.792;9.164;2023-04-07T01:25:17;18.33;;;12.85;;
151;SDS011;68;48.792;9.164;2023-04-07T01:27:54;18.02;;;12.68;;
151;SDS011;68;48.792;9.164;2023-04-07T01:30:31;20.15;;;13.40;;
151;SDS011;68;48.792;9.164;2023-04-07T01:32:59;21.92;;;13.38;;
151;SDS011;68;48.792;9.164;2023-04-07T01:35:28;20.08;;;13.35;;
151;SDS011;68;48.792;9.164;2023-04-07T01:37:57;17.25;;;12.63;;
151;SDS011;68;48.792;9.164;2023-04-07T01:40:25;18.23;;;12.85;;
151;SDS011;68;48.792;9.164;2023-04-07T01:42:53;17.92;;;12.75;;
151;SDS011;68;48.792;9.164;2023-04-07T01:45:21;19.50;;;13.25;;
151;SDS011;68;48.792;9.164;2023-04-07T01:47:50;19.88;;;13.45;;
151;SDS011;68;48.792;9.164;2023-04-07T01:50:19;19.08;;;13.02;;
151;SDS011;68;48.792;9.164;2023-04-07T01:52:47;18.38;;;12.68;;
151;SDS011;68;48.792;9.164;2023-04-07T01:55:14;19.35;;;13.75;;
151;SDS011;68;48.792;9.164;2023-04-07T01:57:41;24.15;;;12.90;;
151;SDS011;68;48.792;9.164;2023-04-07T02:00:08;19.05;;;13.18;;
151;SDS011;68;48.792;9.164;2023-04-07T02:02:35;18.75;;;13.02;;
151;SDS011;68;48.792;9.164;2023-04-07T02:05:08;18.80;;;13.10;;
151;SDS011;68;48.792;9.164;2023-04-07T02:07:41;19.20;;;12.60;;
151;SDS011;68;48.792;9.164;2023-04-07T02:10:12;22.00;;;13.85;;
151;SDS011;68;48.792;9.164;2023-04-07T02:12:41;16.42;;;12.77;;
151;SDS011;68;48.792;9.164;2023-04-07T02:15:11;17.88;;;13.02;;
151;SDS011;68;48.792;9.164;2023-04-07T02:17:39;17.77;;;12.68;;
151;SDS011;68;48.792;9.164;2023-04-07T02:20:10;19.30;;;13.80;;
151;SDS011;68;48.792;9.164;2023-04-07T02:22:38;19.90;;;12.75;;
151;SDS011;68;48.792;9.164;2023-04-07T02:25:19;19.20;;;13.23;;
151;SDS011;68;48.792;9.164;2023-04-07T02:27:49;20.20;;;13.75;;
151;SDS011;68;48.792;9.164;2023-04-07T02:30:16;19.77;;;13.40;;
151;SDS011;68;48.792;9.164;2023-04-07T02:32:43;18.23;;;12.52;;
151;SDS011;68;48.792;9.164;2023-04-07T02:35:11;20.20;;;12.95;;
151;SDS011;68;48.792;9.164;2023-04-07T02:37:38;20.02;;;14.05;;
151;SDS011;68;48.792;9.164;2023-04-07T02:40:05;17.05;;;12.63;;
151;SDS011;68;48.792;9.164;2023-04-07T02:42:33;16.25;;;12.07;;
151;SDS011;68;48.792;9.164;2023-04-07T02:45:00;15.65;;;11.93;;
151;SDS011;68;48.792;9.164;2023-04-07T02:47:27;16.55;;;12.68;;
151;SDS011;68;48.792;9.164;2023-04-07T02:49:54;19.30;;;12.88;;
151;SDS011;68;48.792;9.164;2023-04-07T02:52:22;17.05;;;12.27;;
151;SDS011;68;48.792;9.164;2023-04-07T02:54:48;16.25;;;10.52;;
151;SDS011;68;48.792;9.164;2023-04-07T02:57:15;15.77;;;12.10;;
151;SDS011;68;48.792;9.164;2023-04-07T02:59:42;17.75;;;11.90;;
151;SDS011;68;48.792;9.164;2023-04-07T03:02:09;20.00;;;12.30;;
151;SDS011;68;48.792;9.164;2023-04-07T03:04:35;18.05;;;12.38;;
151;SDS011;68;48.792;9.164;2023-04-07T03:07:02;18.38;;;12.85;;
151;SDS011;68;48.792;9.164;2023-04-07T03:09:30;17.27;;;12.30;;
151;SDS011;68;48.792;9.164;2023-04-07T03:11:57;16.83;;;11.43;;
151;SDS011;68;48.792;9.164;2023-04-07T03:14:24;17.88;;;12.35;;
151;SDS011;68;48.792;9.164;2023-04-07T03:16:51;14.75;;;11.40;;
151;SDS011;68;48.792;9.164;2023-04-07T03:19:17;17.20;;;11.50;;
151;SDS011;68;48.792;9.164;2023-04-07T03:21:44;17.92;;;11.80;;
151;SDS011;68;48.792;9.164;2023-04-07T03:24:11;17.58;;;12.10;;
151;SDS011;68;48.792;9.164;2023-04-07T03:26:39;17.20;;;12.35;;
151;SDS011;68;48.792;9.164;2023-04-07T03:29:06;20.55;;;12.77;;
151;SDS011;68;48.792;9.164;2023-04-07T03:31:33;18.63;;;12.70;;
151;SDS011;68;48.792;9.164;2023-04-07T03:34:01;17.83;;;12.45;;
151;SDS011;68;48.792;9.164;2023-04-07T03:36:28;17.90;;;13.00;;
151;SDS011;68;48.792;9.164;2023-04-07T03:38:55;20.80;;;12.80;;
151;SDS011;68;48.792;9.164;2023-04-07T03:41:22;20.13;;;13.23;;
151;SDS011;68;48.792;9.164;2023-04-07T03:43:50;17.15;;;12.35;;
151;SDS011;68;48.792;9.164;2023-04-07T03:46:18;15.80;;;11.80;;
151;SDS011;68;48.792;9.164;2023-04-07T03:48:45;19.90;;;12.80;;
151;SDS011;68;48.792;9.164;2023-04-07T03:51:12;17.67;;;12.25;;
151;SDS011;68;48.792;9.164;2023-04-07T03:53:39;18.27;;;12.27;;
151;SDS011;68;48.792;9.164;2023-04-07T03:56:06;18.83;;;12.85;;
151;SDS011;68;48.792;9.164;2023-04-07T03:58:32;21.13;;;12.73;;
151;SDS011;68;48.792;9.164;2023-04-07T04:01:01;18.42;;;12.02;;
151;SDS011;68;48.792;9.164;2023-04-07T04:03:28;15.10;;;10.50;;
151;SDS011;68;48.792;9.164;2023-04-07T04:05:55;16.80;;;12.05;;
151;SDS011;68;48.792;9.164;2023-04-07T04:08:21;18.15;;;12.70;;
151;SDS011;68;48.792;9.164;2023-04-07T04:10:48;17.10;;;12.07;;
151;SDS011;68;48.792;9.164;2023-04-07T04:13:16;20.02;;;13.02;;
151;SDS011;68;48.792;9.164;2023-04-07T04:15:42;23.20;;;14.48;;
151;SDS011;68;48.792;9.164;2023-04-07T04:18:10;20.02;;;12.63;;
151;SDS011;68;48.792;9.164;2023-04-07T04:20:40;25.60;;;13.30;;
151;SDS011;68;48.792;9.164;2023-04-07T04:23:07;17.90;;;12.85;;
151;SDS011;68;48.792;9.164;2023-04-07T04:25:34;17.60;;;12.10;;
151;SDS011;68;48.792;9.164;2023-04-07T04:28:03;20.95;;;13.85;;
151;SDS011;68;48.792;9.164;2023-04-07T04:30:30;18.08;;;11.70;;
151;SDS011;68;48.792;9.164;2023-04-07T04:32:57;19.73;;;13.43;;
151;SDS011;68;48.792;9.164;2023-04-07T04:35:25;16.30;;;12.13;;
151;SDS011;68;48.792;9.164;2023-04-07T04:37:52;20.10;;;12.80;;
151;SDS011;68;48.792;9.164;2023-04-07T04:40:19;18.48;;;13.07;;
151;SDS011;68;48.792;9.164;2023-04-07T04:42:45;20.42;;;12.63;;
151;SDS011;68;48.792;9.164;2023-04-07T04:45:12;17.02;;;12.30;;
151;SDS011;68;48.792;9.164;2023-04-07T04:47:39;16.65;;;11.77;;
151;SDS011;68;48.792;9.164;2023-04-07T04:50:08;17.27;;;12.50;;
151;SDS011;68;48.792;9.164;2023-04-07T04:52:36;15.80;;;12.20;;
151;SDS011;68;48.792;9.164;2023-04-07T04:55:03;17.67;;;12.35;;
151;SDS011;68;48.792;9.164;2023-04-07T04:57:30;19.25;;;12.50;;
151;SDS011;68;48.792;9.164;2023-04-07T04:59:58;18.02;;;12.88;;
151;SDS011;68;48.792;9.164;2023-04-07T05:02:25;16.55;;;12.32;;
151;SDS011;68;48.792;9.164;2023-04-07T05:04:52;17.42;;;11.98;;
151;SDS011;68;48.792;9.164;2023-04-07T05:07:19;18.02;;;12.15;;
151;SDS011;68;48.792;9.164;2023-04-07T05:09:47;17.42;;;12.27;;
151;SDS011;68;48.792;9.164;2023-04-07T05:12:16;17.88;;;12.70;;
151;SDS011;68;48.792;9.164;2023-04-07T05:14:43;19.23;;;12.43;;
151;SDS011;68;48.792;9.164;2023-04-07T05:17:09;16.20;;;11.52;;
151;SDS011;68;48.792;9.164;2023-04-07T05:19:36;22.02;;;11.95;;
151;SDS011;68;48.792;9.164;2023-04-07T05:22:03;24.65;;;13.15;;
151;SDS011;68;48.792;9.164;2023-04-07T05:24:30;16.92;;;12.15;;
151;SDS011;68;48.792;9.164;2023-04-07T05:26:58;16.85;;;11.90;;
151;SDS011;68;48.792;9.164;2023-04-07T05:29:25;15.20;;;11.80;;
151;SDS011;68;48.792;9.164;2023-04-07T05:31:52;18.45;;;12.65;;
151;SDS011;68;48.792;9.164;2023-04-07T05:34:19;16.42;;;11.50;;
151;SDS011;68;48.792;9.164;2023-04-07T05:36:46;17.85;;;11.70;;
151;SDS011;68;48.792;9.164;2023-04-07T05:39:12;20.90;;;12.80;;
151;SDS011;68;48.792;9.164;2023-04-07T05:41:39;16.10;;;11.50;;
151;SDS011;68;48.792;9.164;2023-04-07T05:44:07;16.67;;;12.25;;
151;SDS011;68;48.792;9.164;2023-04-07T05:46:35;18.13;;;12.75;;
151;SDS011;68;48.792;9.164;2023-04-07T05:49:02;17.00;;;12.02;;
151;SDS011;68;48.792;9.164;2023-04-07T05:51:29;19.75;;;12.30;;
151;SDS011;68;48.792;9.164;2023-04-07T05:53:57;17.38;;;12.30;;
151;SDS011;68;48.792;9.164;2023-04-07T05:56:26;19.25;;;13.25;;
151;SDS011;68;48.792;9.164;2023-04-07T05:58:53;17.95;;;12.93;;
151;SDS011;68;48.792;9.164;2023-04-07T06:01:22;19.55;;;12.38;;
151;SDS011;68;48.792;9.164;2023-04-07T06:03:48;19.75;;;13.07;;
151;SDS011;68;48.792;9.164;2023-04-07T06:06:15;19.60;;;13.77;;
151;SDS011;68;48.792;9.164;2023-04-07T06:08:42;19.13;;;11.98;;
151;SDS011;68;48.792;9.164;2023-04-07T06:11:10;21.90;;;13.23;;
151;SDS011;68;48.792;9.164;2023-04-07T06:13:36;17.42;;;12.90;;
151;SDS011;68;48.792;9.164;2023-04-07T06:16:03;20.27;;;12.45;;
151;SDS011;68;48.792;9.164;2023-04-07T06:18:32;18.67;;;13.32;;
151;SDS011;68;48.792;9.164;2023-04-07T06:20:59;16.90;;;12.70;;
151;SDS011;68;48.792;9.164;2023-04-07T06:23:25;18.95;;;13.43;;
151;SDS011;68;48.792;9.164;2023-04-07T06:25:52;17.00;;;12.32;;
151;SDS011;68;48.792;9.164;2023-04-07T06:28:19;14.82;;;11.45;;
151;SDS011;68;48.792;9.164;2023-04-07T06:30:46;19.70;;;13.63;;
151;SDS011;68;48.792;9.164;2023-04-07T06:33:13;16.63;;;11.45;;
151;SDS011;68;48.792;9.164;2023-04-07T06:35:41;20.27;;;12.52;;
151;SDS011;68;48.792;9.164;2023-04-07T06:38:07;17.80;;;12.27;;
151;SDS011;68;48.792;9.164;2023-04-07T06:40:35;17.40;;;12.32;;
151;SDS011;68;48.792;9.164;2023-04-07T06:43:02;16.17;;;11.90;;
151;SDS011;68;48.792;9.164;2023-04-07T06:45:29;20.30;;;13.18;;
151;SDS011;68;48.792;9.164;2023-04-07T06:47:55;21.42;;;12.60;;
151;SDS011;68;48.792;9.164;2023-04-07T06:50:22;17.38;;;13.20;;
151;SDS011;68;48.792;9.164;2023-04-07T06:52:50;21.55;;;12.88;;
151;SDS011;68;48.792;9.164;2023-04-07T06:55:17;21.17;;;13.05;;
151;SDS011;68;48.792;9.164;2023-04-07T06:57:44;19.25;;;12.70;;
151;SDS011;68;48.792;9.164;2023-04-07T07:00:11;20.08;;;12.95;;
151;SDS011;68;48.792;9.164;2023-04-07T07:02:39;17.60;;;12.15;;
151;SDS011;68;48.792;9.164;2023-04-07T07:05:05;20.73;;;12.75;;
151;SDS011;68;48.792;9.164;2023-04-07T07:07:33;18.17;;;12.43;;
151;SDS011;68;48.792;9.164;2023-04-07T07:10:01;18.02;;;12.55;;
151;SDS011;68;48.792;9.164;2023-04-07T07:12:28;20.70;;;12.90;;
151;SDS011;68;48.792;9.164;2023-04-07T07:14:54;16.92;;;11.82;;
151;SDS011;68;48.792;9.164;2023-04-07T07:17:24;18.10;;;12.85;;
151;SDS011;68;48.792;9.164;2023-04-07T07:19:51;18.45;;;12.82;;
151;SDS011;68;48.792;9.164;2023-04-07T07:22:18;18.08;;;12.80;;
151;SDS011;68;48.792;9.164;2023-04-07T07:24:44;17.98;;;12.05;;
151;SDS011;68;48.792;9.164;2023-04-07T07:27:13;20.25;;;13.10;;
151;SDS011;68;48.792;9.164;2023-04-07T07:29:39;20.90;;;14.57;;
151;SDS011;68;48.792;9.164;2023-04-07T07:32:06;19.75;;;13.60;;
151;SDS011;68;48.792;9.164;2023-04-07T07:34:33;19.77;;;12.90;;
151;SDS011;68;48.792;9.164;2023-04-07T07:37:00;18.65;;;12.88;;
151;SDS011;68;48.792;9.164;2023-04-07T07:39:26;18.13;;;13.65;;
151;SDS011;68;48.792;9.164;2023-04-07T07:41:54;20.20;;;12.18;;
151;SDS011;68;48.792;9.164;2023-04-07T07:44:22;16.70;;;12.30;;
151;SDS011;68;48.792;9.164;2023-04-07T07:46:49;20.73;;;12.50;;
151;SDS011;68;48.792;9.164;2023-04-07T07:49:16;19.50;;;13.38;;
151;SDS011;68;48.792;9.164;2023-04-07T07:51:42;17.85;;;12.52;;
151;SDS011;68;48.792;9.164;2023-04-07T07:54:10;20.90;;;12.48;;
151;SDS011;68;48.792;9.164;2023-04-07T07:56:37;18.92;;;12.85;;
151;SDS011;68;48.792;9.164;2023-04-07T07:59:04;18.45;;;13.10;;
151;SDS011;68;48.792;9.164;2023-04-07T08:01:32;19.83;;;12.40;;
151;SDS011;68;48.792;9.164;2023-04-07T08:03:59;18.88;;;13.73;;
151;SDS011;68;48.792;9.164;2023-04-07T08:06:28;18.05;;;13.40;;
151;SDS011;68;48.792;9.164;2023-04-07T08:08:56;20.40;;;13.80;;
151;SDS011;68;48.792;9.164;2023-04-07T08:11:23;17.10;;;12.48;;
151;SDS011;68;48.792;9.164;2023-04-07T08:13:50;20.20;;;13.80;;
151;SDS011;68;48.792;9.164;2023-04-07T08:16:18;17.30;;;13.02;;
151;SDS011;68;48.792;9.164;2023-04-07T08:18:47;19.48;;;11.93;;
151;SDS011;68;48.792;9.164;2023-04-07T08:21:14;18.02;;;12.73;;
151;SDS011;68;48.792;9.164;2023-04-07T08:23:40;19.27;;;13.45;;
151;SDS011;68;48.792;9.164;2023-04-07T08:26:07;15.75;;;11.65;;
151;SDS011;68;48.792;9.164;2023-04-07T08:28:34;18.60;;;11.98;;
151;SDS011;68;48.792;9.164;2023-04-07T08:31:01;16.77;;;11.98;;
151;SDS011;68;48.792;9.164;2023-04-07T08:33:27;16.20;;;11.95;;
151;SDS011;68;48.792;9.164;2023-04-07T08:35:58;18.02;;;11.60;;
151;SDS011;68;48.792;9.164;2023-04-07T08:38:25;18.30;;;12.40;;
151;SDS011;68;48.792;9.164;2023-04-07T08:40:53;17.23;;;12.48;;
151;SDS011;68;48.792;9.164;2023-04-07T08:43:25;19.33;;;12.18;;
151;SDS011;68;48.792;9.164;2023-04-07T08:45:54;18.75;;;12.30;;
151;SDS011;68;48.792;9.164;2023-04-07T08:48:23;17.50;;;11.85;;
151;SDS011;68;48.792;9.164;2023-04-07T08:50:51;20.02;;;11.70;;
151;SDS011;68;48.792;9.164;2023-04-07T08:53:22;17.33;;;12.00;;
151;SDS011;68;48.792;9.164;2023-04-07T08:55:53;18.05;;;12.23;;
151;SDS011;68;48.792;9.164;2023-04-07T08:58:21;16.80;;;11.30;;
151;SDS011;68;48.792;9.164;2023-04-07T09:00:48;15.07;;;11.00;;
151;SDS011;68;48.792;9.164;2023-04-07T09:03:16;16.30;;;11.30;;
151;SDS011;68;48.792;9.164;2023-04-07T09:05:43;15.15;;;11.40;;
151;SDS011;68;48.792;9.164;2023-04-07T09:08:11;15.85;;;10.70;;
151;SDS011;68;48.792;9.164;2023-04-07T09:10:39;13.45;;;10.30;;
151;SDS011;68;48.792;9.164;2023-04-07T09:13:06;17.25;;;10.55;;
151;SDS011;68;48.792;9.164;2023-04-07T09:15:32;11.95;;;9.70;;
151;SDS011;68;48.792;9.164;2023-04-07T09:18:00;11.82;;;8.98;;
151;SDS011;68;48.792;9.164;2023-04-07T09:20:26;13.60;;;8.57;;
151;SDS011;68;48.792;9.164;2023-04-07T09:22:53;14.05;;;9.20;;
151;SDS011;68;48.792;9.164;2023-04-07T09:25:20;15.00;;;8.98;;
151;SDS011;68;48.792;9.164;2023-04-07T09:27:56;14.25;;;8.13;;
151;SDS011;68;48.792;9.164;2023-04-07T09:30:24;11.25;;;8.70;;
151;SDS011;68;48.792;9.164;2023-04-07T09:32:51;14.07;;;8.57;;
151;SDS011;68;48.792;9.164;2023-04-07T09:35:18;8.93;;;7.32;;
151;SDS011;68;48.792;9.164;2023-04-07T09:37:54;11.75;;;7.95;;
151;SDS011;68;48.792;9.164;2023-04-07T09:40:27;15.38;;;8.98;;
151;SDS011;68;48.792;9.164;2023-04-07T09:42:53;13.13;;;9.77;;
151;SDS011;68;48.792;9.164;2023-04-07T09:45:23;13.80;;;10.77;;
151;SDS011;68;48.792;9.164;2023-04-07T09:47:51;15.55;;;10.98;;
151;SDS011;68;48.792;9.164;2023-04-07T09:50:29;18.42;;;11.00;;
151;SDS011;68;48.792;9.164;2023-04-07T09:52:57;14.25;;;9.82;;
151;SDS011;68;48.792;9.164;2023-04-07T09:55:25;23.35;;;10.15;;
151;SDS011;68;48.792;9.164;2023-04-07T09:57:55;15.13;;;10.13;;
151;SDS011;68;48.792;9.164;2023-04-07T10:00:22;11.63;;;9.30;;
151;SDS011;68;48.792;9.164;2023-04-07T10:02:49;12.25;;;9.48;;
151;SDS011;68;48.792;9.164;2023-04-07T10:05:17;15.52;;;8.80;;
151;SDS011;68;48.792;9.164;2023-04-07T10:07:46;13.07;;;10.38;;
151;SDS011;68;48.792;9.164;2023-04-07T10:10:16;16.77;;;10.43;;
151;SDS011;68;48.792;9.164;2023-04-07T10:12:43;16.35;;;10.85;;
151;SDS011;68;48.792;9.164;2023-04-07T10:15:12;14.80;;;10.30;;
151;SDS011;68;48.792;9.164;2023-04-07T10:17:40;14.77;;;10.98;;
151;SDS011;68;48.792;9.164;2023-04-07T10:20:13;15.07;;;10.60;;
151;SDS011;68;48.792;9.164;2023-04-07T10:22:44;13.25;;;10.15;;
151;SDS011;68;48.792;9.164;2023-04-07T10:25:13;14.75;;;9.23;;
151;SDS011;68;48.792;9.164;2023-04-07T10:27:44;16.45;;;10.90;;
151;SDS011;68;48.792;9.164;2023-04-07T10:30:17;17.38;;;10.55;;
151;SDS011;68;48.792;9.164;2023-04-07T10:32:47;16.20;;;10.18;;
151;SDS011;68;48.792;9.164;2023-04-07T10:35:15;13.60;;;10.57;;
151;SDS011;68;48.792;9.164;2023-04-07T10:40:37;15.25;;;10.70;;
151;SDS011;68;48.792;9.164;2023-04-07T10:43:06;15.15;;;9.57;;
151;SDS011;68;48.792;9.164;2023-04-07T10:48:20;14.52;;;10.00;;
151;SDS011;68;48.792;9.164;2023-04-07T10:57:09;15.02;;;10.18;;
151;SDS011;68;48.792;9.164;2023-04-07T10:59:38;14.00;;;9.68;;
151;SDS011;68;48.792;9.164;2023-04-07T11:02:30;14.48;;;10.00;;
151;SDS011;68;48.792;9.164;2023-04-07T11:04:58;16.20;;;9.68;;
151;SDS011;68;48.792;9.164;2023-04-07T11:07:44;12.93;;;9.85;;
151;SDS011;68;48.792;9.164;2023-04-07T11:10:14;13.40;;;9.82;;
151;SDS011;68;48.792;9.164;2023-04-07T11:12:43;15.75;;;9.90;;
151;SDS011;68;48.792;9.164;2023-04-07T11:15:22;12.57;;;9.00;;
151;SDS011;68;48.792;9.164;2023-04-07T11:20:40;14.68;;;8.50;;
151;SDS011;68;48.792;9.164;2023-04-07T11:23:12;15.05;;;10.60;;
151;SDS011;68;48.792;9.164;2023-04-07T11:25:41;23.10;;;14.50;;
151;SDS011;68;48.792;9.164;2023-04-07T11:28:09;15.35;;;9.63;;
151;SDS011;68;48.792;9.164;2023-04-07T11:30:37;13.07;;;9.45;;
151;SDS011;68;48.792;9.164;2023-04-07T11:33:04;13.88;;;9.43;;
151;SDS011;68;48.792;9.164;2023-04-07T11:35:34;17.42;;;10.18;;
151;SDS011;68;48.792;9.164;2023-04-07T11:38:01;16.00;;;9.48;;
151;SDS011;68;48.792;9.164;2023-04-07T11:40:31;15.77;;;10.80;;
151;SDS011;68;48.792;9.164;2023-04-07T11:42:59;12.98;;;10.40;;
151;SDS011;68;48.792;9.164;2023-04-07T11:45:27;18.98;;;11.73;;
151;SDS011;68;48.792;9.164;2023-04-07T11:47:54;14.48;;;10.45;;
151;SDS011;68;48.792;9.164;2023-04-07T11:53:07;13.98;;;10.35;;
151;SDS011;68;48.792;9.164;2023-04-07T11:55:34;14.38;;;11.15;;
151;SDS011;68;48.792;9.164;2023-04-07T11:58:04;22.20;;;12.35;;
151;SDS011;68;48.792;9.164;2023-04-07T12:00:34;18.98;;;12.75;;
151;SDS011;68;48.792;9.164;2023-04-07T12:03:08;16.08;;;12.30;;
151;SDS011;68;48.792;9.164;2023-04-07T12:05:43;22.67;;;13.25;;
151;SDS011;68;48.792;9.164;2023-04-07T12:08:11;18.70;;;12.23;;
151;SDS011;68;48.792;9.164;2023-04-07T12:10:38;18.27;;;13.85;;
151;SDS011;68;48.792;9.164;2023-04-07T12:13:06;19.33;;;13.05;;
151;SDS011;68;48.792;9.164;2023-04-07T12:15:33;19.70;;;13.38;;
151;SDS011;68;48.792;9.164;2023-04-07T12:18:04;23.35;;;12.98;;
151;SDS011;68;48.792;9.164;2023-04-07T12:20:31;20.15;;;12.30;;
151;SDS011;68;48.792;9.164;2023-04-07T12:22:59;19.45;;;13.25;;
151;SDS011;68;48.792;9.164;2023-04-07T12:25:26;16.48;;;12.85;;
151;SDS011;68;48.792;9.164;2023-04-07T12:27:52;16.60;;;12.43;;
151;SDS011;68;48.792;9.164;2023-04-07T12:30:19;13.80;;;8.20;;
151;SDS011;68;48.792;9.164;2023-04-07T12:32:46;8.38;;;5.88;;
151;SDS011;68;48.792;9.164;2023-04-07T12:35:13;7.25;;;5.78;;
151;SDS011;68;48.792;9.164;2023-04-07T12:37:40;6.85;;;5.68;;
151;SDS011;68;48.792;9.164;2023-04-07T12:40:08;9.35;;;7.72;;
151;SDS011;68;48.792;9.164;2023-04-07T12:42:35;13.55;;;8.25;;
151;SDS011;68;48.792;9.164;2023-04-07T12:45:02;12.88;;;9.10;;
151;SDS011;68;48.792;9.164;2023-04-07T12:47:29;13.10;;;9.85;;
151;SDS011;68;48.792;9.164;2023-04-07T12:49:56;20.25;;;11.32;;
151;SDS011;68;48.792;9.164;2023-04-07T12:52:23;13.57;;;10.15;;
151;SDS011;68;48.792;9.164;2023-04-07T12:54:50;11.70;;;9.63;;
151;SDS011;68;48.792;9.164;2023-04-07T12:57:18;10.73;;;8.73;;
151;SDS011;68;48.792;9.164;2023-04-07T12:59:45;11.75;;;7.93;;
151;SDS011;68;48.792;9.164;2023-04-07T13:02:12;9.13;;;7.32;;
151;SDS011;68;48.792;9.164;2023-04-07T13:04:41;14.65;;;10.63;;
151;SDS011;68;48.792;9.164;2023-04-07T13:07:10;15.75;;;10.65;;
151;SDS011;68;48.792;9.164;2023-04-07T13:09:37;10.20;;;7.80;;
151;SDS011;68;48.792;9.164;2023-04-07T13:12:05;9.07;;;7.15;;
151;SDS011;68;48.792;9.164;2023-04-07T13:14:33;9.18;;;7.13;;
151;SDS011;68;48.792;9.164;2023-04-07T13:17:00;8.60;;;6.55;;
151;SDS011;68;48.792;9.164;2023-04-07T13:19:26;8.25;;;7.03;;
151;SDS011;68;48.792;9.164;2023-04-07T13:21:54;8.27;;;6.40;;
151;SDS011;68;48.792;9.164;2023-04-07T13:24:21;11.02;;;7.15;;
151;SDS011;68;48.792;9.164;2023-04-07T13:26:49;7.22;;;6.28;;
151;SDS011;68;48.792;9.164;2023-04-07T13:29:15;8.60;;;7.13;;
151;SDS011;68;48.792;9.164;2023-04-07T13:31:45;14.98;;;8.18;;
151;SDS011;68;48.792;9.164;2023-04-07T13:34:12;18.95;;;8.40;;
151;SDS011;68;48.792;9.164;2023-04-07T13:36:39;10.00;;;7.78;;
151;SDS011;68;48.792;9.164;2023-04-07T13:39:06;10.18;;;8.38;;
151;SDS011;68;48.792;9.164;2023-04-07T13:41:34;9.27;;;7.03;;
151;SDS011;68;48.792;9.164;2023-04-07T13:44:01;10.13;;;7.57;;
151;SDS011;68;48.792;9.164;2023-04-07T13:46:28;10.13;;;6.97;;
151;SDS011;68;48.792;9.164;2023-04-07T13:48:56;8.38;;;7.05;;
151;SDS011;68;48.792;9.164;2023-04-07T13:51:23;8.98;;;6.53;;
151;SDS011;68;48.792;9.164;2023-04-07T13:53:50;8.43;;;5.20;;
151;SDS011;68;48.792;9.164;2023-04-07T13:56:16;7.22;;;5.45;;
151;SDS011;68;48.792;9.164;2023-04-07T13:58:43;7.22;;;5.40;;
151;SDS011;68;48.792;9.164;2023-04-07T14:01:10;7.97;;;5.80;;
151;SDS011;68;48.792;9.164;2023-04-07T14:03:37;8.50;;;5.82;;
151;SDS011;68;48.792;9.164;2023-04-07T14:06:05;6.90;;;5.75;;
151;SDS011;68;48.792;9.164;2023-04-07T14:08:32;7.78;;;5.75;;
151;SDS011;68;48.792;9.164;2023-04-07T14:10:59;7.70;;;6.18;;
151;SDS011;68;48.792;9.164;2023-04-07T14:13:25;8.65;;;6.32;;
151;SDS011;68;48.792;9.164;2023-04-07T14:15:52;10.55;;;6.25;;
151;SDS011;68;48.792;9.164;2023-04-07T14:18:19;14.07;;;7.55;;
151;SDS011;68;48.792;9.164;2023-04-07T14:20:47;9.45;;;6.85;;
151;SDS011;68;48.792;9.164;2023-04-07T14:23:15;10.32;;;7.55;;
151;SDS011;68;48.792;9.164;2023-04-07T14:25:42;10.88;;;7.85;;
151;SDS011;68;48.792;9.164;2023-04-07T14:28:09;20.17;;;12.52;;
151;SDS011;68;48.792;9.164;2023-04-07T14:30:36;13.82;;;9.25;;
151;SDS011;68;48.792;9.164;2023-04-07T14:33:03;12.32;;;8.05;;
151;SDS011;68;48.792;9.164;2023-04-07T14:35:30;13.75;;;8.45;;
151;SDS011;68;48.792;9.164;2023-04-07T14:37:57;14.10;;;9.13;;
151;SDS011;68;48.792;9.164;2023-04-07T14:40:25;13.45;;;9.05;;
151;SDS011;68;48.792;9.164;2023-04-07T14:42:51;8.85;;;8.27;;
151;SDS011;68;48.792;9.164;2023-04-07T14:45:18;11.70;;;8.85;;
151;SDS011;68;48.792;9.164;2023-04-07T14:47:45;13.80;;;9.00;;
151;SDS011;68;48.792;9.164;2023-04-07T14:50:12;13.90;;;8.77;;
151;SDS011;68;48.792;9.164;2023-04-07T14:52:38;13.02;;;8.90;;
151;SDS011;68;48.792;9.164;2023-04-07T14:55:05;12.10;;;8.52;;
151;SDS011;68;48.792;9.164;2023-04-07T14:57:34;9.88;;;8.30;;
151;SDS011;68;48.792;9.164;2023-04-07T15:00:01;13.48;;;8.30;;
151;SDS011;68;48.792;9.164;2023-04-07T15:02:31;10.15;;;8.15;;
151;SDS011;68;48.792;9.164;2023-04-07T15:04:58;14.38;;;8.40;;
151;SDS011;68;48.792;9.164;2023-04-07T15:07:26;10.95;;;8.57;;
151;SDS011;68;48.792;9.164;2023-04-07T15:09:53;11.65;;;8.13;;
151;SDS011;68;48.792;9.164;2023-04-07T15:12:20;9.45;;;7.88;;
151;SDS011;68;48.792;9.164;2023-04-07T15:14:50;17.30;;;8.98;;
151;SDS011;68;48.792;9.164;2023-04-07T15:17:17;9.07;;;7.80;;
151;SDS011;68;48.792;9.164;2023-04-07T15:19:45;9.70;;;8.05;;
151;SDS011;68;48.792;9.164;2023-04-07T15:22:12;10.30;;;8.07;;
151;SDS011;68;48.792;9.164;2023-04-07T15:24:39;18.00;;;8.63;;
151;SDS011;68;48.792;9.164;2023-04-07T15:27:06;11.63;;;8.18;;
151;SDS011;68;48.792;9.164;2023-04-07T15:29:34;10.27;;;8.00;;
151;SDS011;68;48.792;9.164;2023-04-07T15:32:04;10.73;;;8.38;;
151;SDS011;68;48.792;9.164;2023-04-07T15:34:31;13.30;;;8.27;;
151;SDS011;68;48.792;9.164;2023-04-07T15:36:58;11.50;;;8.82;;
151;SDS011;68;48.792;9.164;2023-04-07T15:39:24;14.30;;;8.93;;
151;SDS011;68;48.792;9.164;2023-04-07T15:41:51;13.02;;;9.43;;
151;SDS011;68;48.792;9.164;2023-04-07T15:44:18;14.32;;;9.85;;
151;SDS011;68;48.792;9.164;2023-04-07T15:46:44;12.55;;;9.32;;
151;SDS011;68;48.792;9.164;2023-04-07T15:49:13;14.68;;;9.20;;
151;SDS011;68;48.792;9.164;2023-04-07T15:51:44;13.48;;;9.20;;
151;SDS011;68;48.792;9.164;2023-04-07T15:54:11;15.10;;;10.05;;
151;SDS011;68;48.792;9.164;2023-04-07T15:56:37;15.18;;;9.20;;